CheckWX is a tool to help pilots better visualize weather data.  It is not intended as a substitute for an official pre-flight weather briefing.

02:37:52 UTC

KTYS TAF
Mc Ghee Tyson Airport
Knoxville, Tennessee, USA
KTYS 122336Z 1300/1324 00000KT P6SM SCT080 FM130400 VRB02KT P6SM OVC060 FM130900 00000KT P6SM OVC035 PROB30 1309/1314 3SM -RA SCT015 OVC025 FM131400 03003KT 5SM BR VCSH SCT010 OVC020 FM131800 VRB03KT 3SM -RA SCT005 OVC010

Dec-13@
00:00 UTC

Dec-13 @ 00:00 UTC

Dec-13@
04:00 UTC

Dec-13 @ 04:00 UTC

KTYS 122336Z 1300/1324 00000KT P6SM SCT080
Cloud Levels
  • Scattered at 8,000' AGL

Dec-13@
04:00 UTC

Dec-13 @ 04:00 UTC

Dec-13@
09:00 UTC

Dec-13 @ 09:00 UTC

FM130400 VRB02KT P6SM OVC060

From

From Standard forecast or significant change

Wind
  • Variable at 2 KTS
Cloud Levels
  • Overcast at 6,000' AGL

Dec-13@
09:00 UTC

Dec-13 @ 09:00 UTC

Dec-13@
14:00 UTC

Dec-13 @ 14:00 UTC

FM130900 00000KT P6SM OVC035

From

From Standard forecast or significant change

Cloud Levels
  • Overcast at 3,500' AGL

Dec-13@
09:00 UTC

Dec-13 @ 09:00 UTC

Dec-13@
14:00 UTC

Dec-13 @ 14:00 UTC

PROB30 1309/1314 3SM -RA SCT015 OVC025

Probable - 30% Likelihood

Probable - 30% Likelihood during this time.

Conditions
Light Rain
Cloud Levels
  • Scattered at 1,500' AGL
  • Overcast at 2,500' AGL

Dec-13@
14:00 UTC

Dec-13 @ 14:00 UTC

Dec-13@
18:00 UTC

Dec-13 @ 18:00 UTC

FM131400 03003KT 5SM BR VCSH SCT010 OVC020

From

From Standard forecast or significant change

Wind
  • 030° at 3 KTS
Conditions
Mist
Cloud Levels
  • Scattered at 1,000' AGL
  • Overcast at 2,000' AGL

Dec-13@
18:00 UTC

Dec-13 @ 18:00 UTC

Dec-14@
00:00 UTC

Dec-14 @ 00:00 UTC

FM131800 VRB03KT 3SM -RA SCT005 OVC010

From

From Standard forecast or significant change

Wind
  • Variable at 3 KTS
Conditions
Light Rain
Cloud Levels
  • Scattered at 500' AGL
  • Overcast at 1,000' AGL